createdAt,value
2018-12-22T00:01:57.397Z,6.93
2018-12-22T00:07:03.113Z,5.77
2018-12-22T00:12:08.225Z,6.67
2018-12-22T00:17:12.985Z,6.00
2018-12-22T00:22:17.794Z,6.30
2018-12-22T00:27:22.598Z,6.43
2018-12-22T00:32:27.426Z,6.60
2018-12-22T00:37:32.210Z,5.97
2018-12-22T00:42:36.989Z,5.80
2018-12-22T00:47:41.771Z,5.50
2018-12-22T00:52:46.517Z,5.53
2018-12-22T00:57:51.409Z,5.80
2018-12-22T01:02:56.221Z,6.03
2018-12-22T01:08:00.993Z,5.60
2018-12-22T01:13:05.836Z,5.10
2018-12-22T01:18:10.578Z,5.67
2018-12-22T01:23:15.370Z,5.00
2018-12-22T01:28:20.188Z,5.70
2018-12-22T01:33:25.077Z,5.00
2018-12-22T01:38:29.856Z,4.97
2018-12-22T01:43:34.701Z,5.10
2018-12-22T01:48:39.537Z,4.90
2018-12-22T01:53:44.269Z,4.43
2018-12-22T01:58:49.404Z,4.33
2018-12-22T02:03:54.243Z,4.70
2018-12-22T02:08:59.069Z,4.30
2018-12-22T02:14:04.281Z,4.37
2018-12-22T02:19:09.053Z,3.57
2018-12-22T02:24:13.839Z,4.00
2018-12-22T02:29:18.985Z,4.33
2018-12-22T02:34:23.900Z,2.70
2018-12-22T02:39:28.679Z,3.07
2018-12-22T02:44:33.530Z,3.03
2018-12-22T02:49:38.346Z,3.30
2018-12-22T02:54:43.245Z,2.90
2018-12-22T02:59:48.085Z,3.23
2018-12-22T03:04:53.021Z,2.97
2018-12-22T03:09:57.871Z,3.20
2018-12-22T03:15:02.857Z,3.17
2018-12-22T03:20:07.801Z,3.43
2018-12-22T03:25:12.531Z,3.37
2018-12-22T03:30:17.465Z,3.13
2018-12-22T03:35:22.203Z,3.00
2018-12-22T03:40:26.966Z,3.57
2018-12-22T03:45:31.781Z,2.63
2018-12-22T03:50:36.822Z,2.98
2018-12-22T03:55:41.599Z,2.87
2018-12-22T04:00:46.355Z,2.80
2018-12-22T04:05:51.248Z,2.67
2018-12-22T04:11:02.853Z,2.70
2018-12-22T04:16:07.676Z,2.20
2018-12-22T04:21:12.501Z,2.27
2018-12-22T04:26:17.348Z,2.00
2018-12-22T04:31:22.383Z,2.20
2018-12-22T04:36:27.156Z,2.07
2018-12-22T04:41:32.011Z,2.00
2018-12-22T04:46:36.834Z,2.03
2018-12-22T04:51:41.696Z,2.17
2018-12-22T04:56:46.814Z,2.00
2018-12-22T05:01:51.675Z,1.60
2018-12-22T05:06:56.447Z,1.70
2018-12-22T05:12:01.356Z,1.77
2018-12-22T05:17:07.298Z,1.30
2018-12-22T05:22:12.179Z,1.33
2018-12-22T05:27:17.056Z,1.40
2018-12-22T05:32:21.966Z,1.40
2018-12-22T05:37:26.773Z,1.43
2018-12-22T05:42:31.540Z,1.67
2018-12-22T05:47:36.360Z,1.50
2018-12-22T05:52:41.226Z,1.47
2018-12-22T05:57:46.061Z,1.43
2018-12-22T06:02:51.019Z,1.57
2018-12-22T06:07:55.794Z,1.33
2018-12-22T06:13:00.640Z,1.20
2018-12-22T06:18:05.485Z,1.27
2018-12-22T06:23:10.238Z,1.27
2018-12-22T06:28:15.292Z,1.37
2018-12-22T06:33:20.061Z,1.20
2018-12-22T06:38:24.918Z,1.50
2018-12-22T06:43:29.680Z,1.40
2018-12-22T06:48:34.528Z,1.50
2018-12-22T06:53:39.337Z,1.30
2018-12-22T06:58:44.202Z,1.60
2018-12-22T07:03:48.995Z,1.30
2018-12-22T07:08:53.851Z,1.60
2018-12-22T07:13:58.958Z,1.57
2018-12-22T07:19:03.887Z,1.80
2018-12-22T07:24:08.713Z,1.10
2018-12-22T07:29:13.468Z,1.77
2018-12-22T07:34:19.946Z,1.40
2018-12-22T07:39:24.753Z,1.50
2018-12-22T07:44:29.713Z,1.57
2018-12-22T07:49:34.467Z,1.43
2018-12-22T07:54:39.509Z,1.43
2018-12-22T07:59:44.483Z,1.70
2018-12-22T08:04:49.268Z,1.60
2018-12-22T08:09:54.186Z,1.87
2018-12-22T08:15:00.291Z,1.53
2018-12-22T08:20:05.963Z,2.13
2018-12-22T08:25:10.871Z,1.90
2018-12-22T08:30:15.672Z,1.50
2018-12-22T08:35:20.462Z,1.43
2018-12-22T08:40:25.227Z,1.57
2018-12-22T08:45:30.037Z,2.10
2018-12-22T08:50:34.839Z,2.10
2018-12-22T08:55:39.647Z,1.73
2018-12-22T09:00:52.129Z,1.67
2018-12-22T09:05:51.665Z,1.60
2018-12-22T09:10:56.785Z,1.77
2018-12-22T09:16:01.885Z,1.70
2018-12-22T09:21:06.695Z,1.63
2018-12-22T09:26:11.470Z,1.50
2018-12-22T09:31:16.271Z,1.87
2018-12-22T09:36:27.905Z,2.10
2018-12-22T09:41:32.763Z,2.00
2018-12-22T09:46:37.662Z,1.70
2018-12-22T09:51:42.514Z,1.97
2018-12-22T09:56:47.302Z,2.03
2018-12-22T10:01:52.013Z,1.80
2018-12-22T10:06:56.880Z,2.03
2018-12-22T10:12:01.682Z,2.40
2018-12-22T10:17:06.989Z,2.13
2018-12-22T10:22:11.748Z,1.90
2018-12-22T10:27:16.497Z,1.87
2018-12-22T10:32:21.274Z,1.90
2018-12-22T10:37:26.105Z,2.00
2018-12-22T10:42:30.991Z,1.97
2018-12-22T10:47:36.190Z,1.77
2018-12-22T10:52:40.976Z,1.70
2018-12-22T10:57:45.915Z,2.17
2018-12-22T11:02:50.709Z,2.10
2018-12-22T11:07:55.465Z,1.87
2018-12-22T11:13:01.773Z,1.90
2018-12-22T11:18:06.482Z,2.10
2018-12-22T11:23:11.278Z,1.77
2018-12-22T11:28:16.106Z,1.60
2018-12-22T11:33:20.971Z,2.13
2018-12-22T11:38:25.909Z,1.90
2018-12-22T11:43:30.656Z,2.13
2018-12-22T11:48:44.945Z,2.30
2018-12-22T11:53:49.700Z,1.97
2018-12-22T11:58:54.593Z,2.03
2018-12-22T12:03:59.509Z,2.00
2018-12-22T12:09:05.877Z,2.20
2018-12-22T12:14:10.658Z,2.10
2018-12-22T12:19:18.949Z,2.33
2018-12-22T12:24:24.062Z,1.67
2018-12-22T12:29:28.840Z,1.87
2018-12-22T12:34:33.629Z,2.10
2018-12-22T12:39:38.376Z,2.20
2018-12-22T12:44:43.755Z,2.30
2018-12-22T12:49:48.612Z,1.77
2018-12-22T12:54:53.409Z,2.07
2018-12-22T12:59:58.273Z,2.40
2018-12-22T13:05:03.076Z,1.90
2018-12-22T13:10:10.072Z,2.00
2018-12-22T13:15:14.909Z,1.73
2018-12-22T13:20:19.900Z,1.87
2018-12-22T13:25:24.894Z,1.83
2018-12-22T13:30:29.755Z,2.20
2018-12-22T13:35:34.544Z,2.00
2018-12-22T13:40:39.303Z,2.00
2018-12-22T13:45:44.036Z,2.00
2018-12-22T13:50:49.115Z,2.10
2018-12-22T13:55:53.966Z,2.30
2018-12-22T14:00:58.854Z,2.23
2018-12-22T14:06:03.722Z,2.40
2018-12-22T14:11:08.573Z,1.90
2018-12-22T14:16:24.779Z,1.90
2018-12-22T14:21:29.721Z,1.97
2018-12-22T14:26:34.662Z,2.53
2018-12-22T14:31:39.469Z,2.03
2018-12-22T14:36:44.262Z,2.23
2018-12-22T14:41:49.055Z,2.40
2018-12-22T14:46:53.823Z,2.30
2018-12-22T14:51:58.935Z,2.37
2018-12-22T14:57:03.768Z,2.40
2018-12-22T15:02:08.544Z,2.50
2018-12-22T15:07:13.538Z,2.37
2018-12-22T15:12:18.388Z,2.17
2018-12-22T15:17:23.233Z,2.60
2018-12-22T15:22:27.990Z,2.57
2018-12-22T15:27:32.823Z,2.50
2018-12-22T15:32:44.195Z,2.80
2018-12-22T15:37:44.974Z,2.40
2018-12-22T15:42:49.789Z,2.87
2018-12-22T15:47:54.596Z,2.83
2018-12-22T15:52:59.745Z,2.80
2018-12-22T15:58:04.617Z,2.83
2018-12-22T16:03:09.447Z,2.90
2018-12-22T16:08:14.300Z,3.50
2018-12-22T16:13:20.679Z,2.70
2018-12-22T16:18:25.734Z,2.77
2018-12-22T16:23:30.514Z,3.20
2018-12-22T16:28:41.218Z,3.17
2018-12-22T16:33:46.026Z,2.87
2018-12-22T16:38:51.824Z,2.83
2018-12-22T16:43:56.634Z,2.93
2018-12-22T16:49:01.681Z,3.17
2018-12-22T16:54:06.431Z,2.90
2018-12-22T16:59:11.250Z,2.53
2018-12-22T17:04:16.058Z,2.43
2018-12-22T17:09:20.857Z,3.03
2018-12-22T17:14:25.670Z,2.57
2018-12-22T17:19:30.489Z,2.87
2018-12-22T17:24:48.567Z,3.10
2018-12-22T17:29:53.389Z,3.63
2018-12-22T17:34:58.379Z,2.67
2018-12-22T17:40:09.100Z,2.90
2018-12-22T17:45:10.850Z,2.33
2018-12-22T17:50:15.746Z,2.53
2018-12-22T17:55:20.834Z,2.43
2018-12-22T18:00:25.641Z,2.20
2018-12-22T18:05:30.438Z,2.47
2018-12-22T18:10:35.233Z,2.63
2018-12-22T18:15:40.026Z,2.50
2018-12-22T18:20:44.877Z,2.77
2018-12-22T18:25:49.936Z,2.70
2018-12-22T18:30:54.702Z,3.37
2018-12-22T18:35:59.498Z,2.73
2018-12-22T18:41:05.626Z,2.83
2018-12-22T18:46:10.330Z,3.43
2018-12-22T18:51:21.445Z,2.90
2018-12-22T18:56:26.286Z,2.47
2018-12-22T19:01:31.255Z,2.83
2018-12-22T19:06:36.106Z,2.80
2018-12-22T19:11:40.899Z,2.80
2018-12-22T19:16:45.842Z,2.70
2018-12-22T19:21:50.680Z,2.27
2018-12-22T19:26:55.601Z,3.23
2018-12-22T19:32:00.393Z,2.40
2018-12-22T19:37:05.261Z,3.00
2018-12-22T19:42:10.158Z,2.37
2018-12-22T19:47:15.265Z,2.50
2018-12-22T19:52:20.027Z,2.83
2018-12-22T19:57:24.811Z,2.13
2018-12-22T20:02:29.659Z,2.40
2018-12-22T20:07:34.828Z,2.27
2018-12-22T20:12:39.658Z,2.30
2018-12-22T20:17:44.435Z,2.50
2018-12-22T20:22:49.212Z,1.90
2018-12-22T20:27:54.019Z,2.20
2018-12-22T20:32:59.907Z,2.47
2018-12-22T20:38:04.650Z,5.77
2018-12-22T20:43:09.446Z,4.33
2018-12-22T20:48:14.216Z,4.20
2018-12-22T20:53:19.023Z,4.17
2018-12-22T20:58:23.908Z,3.53
2018-12-22T21:03:39.900Z,3.30
2018-12-22T21:08:44.754Z,2.90
2018-12-22T21:13:49.526Z,2.63
2018-12-22T21:18:54.293Z,2.80
2018-12-22T21:23:59.064Z,2.57
2018-12-22T21:29:03.862Z,2.90
2018-12-22T21:34:08.606Z,2.80
2018-12-22T21:39:13.413Z,2.63
2018-12-22T21:44:18.243Z,2.70
2018-12-22T21:49:23.054Z,1.97
2018-12-22T21:54:27.821Z,2.20
2018-12-22T21:59:32.596Z,2.27
2018-12-22T22:04:37.417Z,2.13
2018-12-22T22:09:42.365Z,2.20
2018-12-22T22:14:47.174Z,2.13
2018-12-22T22:19:51.922Z,2.43
2018-12-22T22:24:57.014Z,2.47
2018-12-22T22:30:01.833Z,1.90
2018-12-22T22:35:06.758Z,2.20
2018-12-22T22:40:11.564Z,2.20
2018-12-22T22:45:16.307Z,2.53
2018-12-22T22:50:21.160Z,2.27
2018-12-22T22:55:25.901Z,2.70
2018-12-22T23:00:36.590Z,2.80
2018-12-22T23:05:41.411Z,2.80
2018-12-22T23:10:46.220Z,2.10
2018-12-22T23:15:51.085Z,2.60
2018-12-22T23:20:55.985Z,2.17
2018-12-22T23:26:00.764Z,1.90
2018-12-22T23:31:05.618Z,2.67
2018-12-22T23:36:10.455Z,5.17
2018-12-22T23:41:15.205Z,3.70
2018-12-22T23:46:20.202Z,3.63
2018-12-22T23:51:25.005Z,3.40
2018-12-22T23:56:30.067Z,3.10
